Time,TemperatureF,DewpointF,PressureIn,WindDirection,WindDirectionDegrees,WindSpeedMPH,WindSpeedGustMPH,Humidity,HourlyPrecipIn,Conditions,Clouds,dailyrainin,SoftwareType,DateUTC
2013-05-15 00:00:00,45.6,36.7,29.95,SW,234,0.0,0.0,71,0.00,,,0.00,Wunderground v.1.15,2013-05-15 04:00:00,
2013-05-15 00:05:00,45.8,36.9,29.95,SW,234,0.0,0.0,71,0.00,,,0.00,Wunderground v.1.15,2013-05-15 04:05:00,
2013-05-15 00:15:00,46.0,36.8,29.95,SW,234,0.0,0.0,70,0.00,,,0.00,Wunderground v.1.15,2013-05-15 04:15:00,
2013-05-15 00:20:00,46.2,36.6,29.95,SW,234,1.0,1.0,69,0.00,,,0.00,Wunderground v.1.15,2013-05-15 04:20:00,
2013-05-15 00:25:00,46.4,36.4,29.94,SW,232,1.0,3.0,68,0.00,,,0.00,Wunderground v.1.15,2013-05-15 04:25:00,
2013-05-15 00:30:00,46.6,36.6,29.94,SW,229,2.0,4.0,68,0.00,,,0.00,Wunderground v.1.15,2013-05-15 04:30:00,
2013-05-15 00:40:00,46.9,36.5,29.93,SW,227,2.0,3.0,67,0.00,,,0.00,Wunderground v.1.15,2013-05-15 04:40:00,
2013-05-15 00:50:00,46.8,36.8,29.93,SW,228,1.0,1.0,68,0.00,,,0.00,Wunderground v.1.15,2013-05-15 04:50:00,
2013-05-15 01:00:00,46.7,36.7,29.93,SW,227,0.0,0.0,68,0.00,,,0.00,Wunderground v.1.15,2013-05-15 05:00:00,
2013-05-15 01:05:00,46.7,37.1,29.92,SW,227,0.0,0.0,69,0.00,,,0.00,Wunderground v.1.15,2013-05-15 05:05:00,
2013-05-15 01:10:00,46.6,37.3,29.92,SW,228,0.0,0.0,70,0.00,,,0.00,Wunderground v.1.15,2013-05-15 05:10:00,
2013-05-15 01:20:00,46.4,37.5,29.91,SW,227,0.0,0.0,71,0.00,,,0.00,Wunderground v.1.15,2013-05-15 05:20:00,
2013-05-15 01:25:00,46.3,37.4,29.91,SW,228,0.0,0.0,71,0.00,,,0.00,Wunderground v.1.15,2013-05-15 05:25:00,
2013-05-15 01:35:00,46.1,36.9,29.91,SW,226,2.0,2.0,70,0.00,,,0.00,Wunderground v.1.15,2013-05-15 05:35:00,
2013-05-15 01:45:00,46.1,37.2,29.91,SW,226,1.0,2.0,71,0.00,,,0.00,Wunderground v.1.15,2013-05-15 05:45:00,
2013-05-15 01:55:00,46.0,37.1,29.90,SW,227,0.0,0.0,71,0.00,,,0.00,Wunderground v.1.15,2013-05-15 05:55:00,
2013-05-15 02:05:00,45.7,37.5,29.89,SW,227,0.0,2.0,73,0.00,,,0.00,Wunderground v.1.15,2013-05-15 06:05:00,
2013-05-15 02:15:00,45.3,37.2,29.89,SW,227,0.0,0.0,73,0.00,,,0.00,Wunderground v.1.15,2013-05-15 06:15:00,
2013-05-15 02:25:00,45.0,37.2,29.88,SW,226,0.0,0.0,74,0.00,,,0.00,Wunderground v.1.15,2013-05-15 06:25:00,
2013-05-15 02:35:00,44.7,37.3,29.88,SW,227,0.0,0.0,75,0.00,,,0.00,Wunderground v.1.15,2013-05-15 06:35:00,
2013-05-15 02:45:00,44.5,37.4,29.89,SW,226,0.0,0.0,76,0.00,,,0.00,Wunderground v.1.15,2013-05-15 06:45:00,
2013-05-15 02:55:00,44.1,37.3,29.89,SW,226,1.0,1.0,77,0.00,,,0.00,Wunderground v.1.15,2013-05-15 06:55:00,
2013-05-15 03:05:00,43.9,37.2,29.89,SW,227,0.0,0.0,77,0.00,,,0.00,Wunderground v.1.15,2013-05-15 07:05:00,
2013-05-15 03:15:00,43.7,37.3,29.88,SW,226,0.0,0.0,78,0.00,,,0.00,Wunderground v.1.15,2013-05-15 07:15:00,
2013-05-15 07:25:00,48.4,43.2,29.75,South,171,3.0,3.0,82,0.00,,,0.01,Wunderground v.1.15,2013-05-15 11:25:00,
2013-05-15 07:30:00,48.6,43.4,29.76,South,177,3.0,3.0,82,0.00,,,0.01,Wunderground v.1.15,2013-05-15 11:30:00,
2013-05-15 07:40:00,48.9,43.3,29.76,South,173,3.0,3.0,81,0.00,,,0.01,Wunderground v.1.15,2013-05-15 11:40:00,
2013-05-15 07:45:00,49.0,43.4,29.76,SSE,163,3.0,4.0,81,0.00,,,0.01,Wunderground v.1.15,2013-05-15 11:45:00,
2013-05-15 07:55:00,49.2,43.9,29.76,SSE,163,1.0,3.0,82,0.00,,,0.01,Wunderground v.1.15,2013-05-15 11:55:00,
2013-05-15 08:00:00,49.2,43.9,29.76,SSE,163,0.0,1.0,82,0.00,,,0.01,Wunderground v.1.15,2013-05-15 12:00:00,
2013-05-15 08:10:00,49.2,43.9,29.74,SSE,164,3.0,5.0,82,0.00,,,0.01,Wunderground v.1.15,2013-05-15 12:10:00,
2013-05-15 08:20:00,49.2,44.6,29.74,SSE,164,1.0,1.0,84,0.00,,,0.01,Wunderground v.1.15,2013-05-15 12:20:00,
2013-05-15 08:25:00,49.2,44.6,29.74,SSE,164,0.0,1.0,84,0.00,,,0.01,Wunderground v.1.15,2013-05-15 12:25:00,
2013-05-15 08:30:00,49.2,44.9,29.73,SSE,164,1.0,1.0,85,0.00,,,0.01,Wunderground v.1.15,2013-05-15 12:30:00,
2013-05-15 08:35:00,49.2,45.2,29.74,SSE,164,1.0,1.0,86,0.00,,,0.01,Wunderground v.1.15,2013-05-15 12:35:00,
2013-05-15 08:40:00,49.1,45.1,29.74,SSE,164,0.0,0.0,86,0.00,,,0.01,Wunderground v.1.15,2013-05-15 12:40:00,
2013-05-15 08:45:00,49.1,45.4,29.72,SSE,164,0.0,2.0,87,0.00,,,0.01,Wunderground v.1.15,2013-05-15 12:45:00,
2013-05-15 08:55:00,49.1,46.0,29.70,SSE,164,1.0,1.0,89,0.00,,,0.02,Wunderground v.1.15,2013-05-15 12:55:00,
2013-05-15 09:05:00,49.1,46.0,29.70,SSE,164,1.0,3.0,89,0.00,,,0.02,Wunderground v.1.15,2013-05-15 13:05:00,
2013-05-15 09:10:00,49.2,46.1,29.69,SSE,164,1.0,1.0,89,0.00,,,0.02,Wunderground v.1.15,2013-05-15 13:10:00,
2013-05-15 09:20:00,49.4,46.3,29.73,SSE,164,2.0,2.0,89,0.10,,,0.03,Wunderground v.1.15,2013-05-15 13:20:00,
2013-05-15 09:25:00,49.5,46.4,29.72,South,178,2.0,12.0,89,0.15,,,0.04,Wunderground v.1.15,2013-05-15 13:25:00,
2013-05-15 09:35:00,49.7,47.2,29.70,South,183,3.0,4.0,91,0.16,,,0.11,Wunderground v.1.15,2013-05-15 13:35:00,
2013-05-15 09:45:00,50.3,48.4,29.68,South,183,2.0,2.0,93,0.05,,,0.11,Wunderground v.1.15,2013-05-15 13:45:00,
2013-05-15 09:55:00,52.0,50.6,29.67,South,183,2.0,5.0,95,0.00,,,0.11,Wunderground v.1.15,2013-05-15 13:55:00,
2013-05-15 10:05:00,52.9,51.2,29.66,South,182,2.0,3.0,94,0.00,,,0.11,Wunderground v.1.15,2013-05-15 14:05:00,
2013-05-15 10:10:00,53.2,51.2,29.66,South,182,2.0,4.0,93,0.00,,,0.11,Wunderground v.1.15,2013-05-15 14:10:00,
2013-05-15 10:20:00,54.2,51.9,29.64,South,176,3.0,5.0,92,0.00,,,0.11,Wunderground v.1.15,2013-05-15 14:20:00,
2013-05-15 10:25:00,55.1,52.8,29.64,South,171,3.0,7.0,92,0.00,,,0.11,Wunderground v.1.15,2013-05-15 14:25:00,
2013-05-15 10:35:00,56.2,53.3,29.63,South,175,4.0,4.0,90,0.00,,,0.11,Wunderground v.1.15,2013-05-15 14:35:00,
2013-05-15 10:40:00,56.5,53.0,29.63,South,173,3.0,3.0,88,0.00,,,0.11,Wunderground v.1.15,2013-05-15 14:40:00,
2013-05-15 10:45:00,56.9,53.7,29.63,South,171,4.0,5.0,89,0.00,,,0.11,Wunderground v.1.15,2013-05-15 14:45:00,
2013-05-15 10:55:00,57.7,53.9,29.62,South,172,4.0,6.0,87,0.00,,,0.11,Wunderground v.1.15,2013-05-15 14:55:00,
2013-05-15 11:05:00,58.9,54.4,29.61,SSE,168,3.0,3.0,85,0.00,,,0.11,Wunderground v.1.15,2013-05-15 15:05:00,
2013-05-15 11:15:00,61.0,55.8,29.60,SSW,200,5.0,9.0,83,0.00,,,0.11,Wunderground v.1.15,2013-05-15 15:15:00,
2013-05-15 11:20:00,62.1,55.5,29.60,South,186,7.0,7.0,79,0.00,,,0.11,Wunderground v.1.15,2013-05-15 15:20:00,
2013-05-15 11:25:00,63.0,54.6,29.60,South,189,9.0,11.0,74,0.00,,,0.11,Wunderground v.1.15,2013-05-15 15:25:00,
2013-05-15 11:35:00,64.5,56.8,29.59,South,191,7.0,8.0,76,0.00,,,0.11,Wunderground v.1.15,2013-05-15 15:35:00,
2013-05-15 11:45:00,66.1,56.8,29.58,South,182,7.0,9.0,72,0.00,,,0.11,Wunderground v.1.15,2013-05-15 15:45:00,
2013-05-15 11:50:00,66.9,57.6,29.58,South,181,9.0,11.0,72,0.00,,,0.11,Wunderground v.1.15,2013-05-15 15:50:00,
2013-05-15 12:00:00,68.3,58.5,29.57,SSW,192,8.0,10.0,71,0.00,,,0.11,Wunderground v.1.15,2013-05-15 16:00:00,
2013-05-15 12:05:00,69.2,59.4,29.56,WSW,240,8.0,10.0,71,0.00,,,0.11,Wunderground v.1.15,2013-05-15 16:05:00,
2013-05-15 12:15:00,70.9,59.0,29.56,SSW,203,8.0,11.0,66,0.00,,,0.11,Wunderground v.1.15,2013-05-15 16:15:00,
2013-05-15 12:20:00,71.4,59.9,29.55,SW,221,9.0,9.0,67,0.00,,,0.11,Wunderground v.1.15,2013-05-15 16:20:00,
2013-05-15 12:30:00,72.4,59.5,29.54,SSW,192,10.0,10.0,64,0.00,,,0.11,Wunderground v.1.15,2013-05-15 16:30:00,
2013-05-15 12:40:00,73.4,60.9,29.53,SW,234,8.0,8.0,65,0.00,,,0.11,Wunderground v.1.15,2013-05-15 16:40:00,
2013-05-15 12:50:00,74.4,61.4,29.52,SW,236,7.0,7.0,64,0.00,,,0.11,Wunderground v.1.15,2013-05-15 16:50:00,
2013-05-15 13:00:00,75.4,60.5,29.51,SSW,206,8.0,10.0,60,0.00,,,0.11,Wunderground v.1.15,2013-05-15 17:00:00,
2013-05-15 13:10:00,76.1,61.7,29.51,SW,217,10.0,10.0,61,0.00,,,0.11,Wunderground v.1.15,2013-05-15 17:10:00,
2013-05-15 13:20:00,76.5,61.6,29.51,SSW,209,11.0,11.0,60,0.00,,,0.11,Wunderground v.1.15,2013-05-15 17:20:00,
2013-05-15 13:25:00,76.1,60.7,29.51,South,191,10.0,14.0,59,0.00,,,0.11,Wunderground v.1.15,2013-05-15 17:25:00,
2013-05-15 13:35:00,75.3,60.9,29.50,SSW,200,11.0,14.0,61,0.00,,,0.11,Wunderground v.1.15,2013-05-15 17:35:00,
2013-05-15 13:45:00,75.3,61.8,29.50,WSW,248,7.0,9.0,63,0.00,,,0.11,Wunderground v.1.15,2013-05-15 17:45:00,
2013-05-15 13:55:00,76.6,62.1,29.50,SW,215,7.0,9.0,61,0.00,,,0.11,Wunderground v.1.15,2013-05-15 17:55:00,
2013-05-15 14:10:00,79.7,64.1,29.49,WSW,238,6.0,6.0,59,0.00,,,0.11,Wunderground v.1.15,2013-05-15 18:10:00,
2013-05-15 14:25:00,80.4,63.8,29.49,SW,218,10.0,10.0,57,0.00,,,0.11,Wunderground v.1.15,2013-05-15 18:25:00,
2013-05-15 14:35:00,80.5,62.8,29.50,WNW,284,11.0,16.0,55,0.00,,,0.11,Wunderground v.1.15,2013-05-15 18:35:00,
2013-05-15 14:45:00,80.7,62.5,29.51,West,266,12.0,12.0,54,0.00,,,0.11,Wunderground v.1.15,2013-05-15 18:45:00,
2013-05-15 14:55:00,80.6,61.9,29.52,West,277,10.0,21.0,53,0.00,,,0.11,Wunderground v.1.15,2013-05-15 18:55:00,
2013-05-15 15:00:00,80.6,62.9,29.51,SW,234,8.0,8.0,55,0.00,,,0.11,Wunderground v.1.15,2013-05-15 19:00:00,
2013-05-15 15:10:00,80.8,62.1,29.52,WSW,242,9.0,9.0,53,0.00,,,0.11,Wunderground v.1.15,2013-05-15 19:10:00,
2013-05-15 15:20:00,80.6,61.3,29.53,West,264,11.0,11.0,52,0.00,,,0.11,Wunderground v.1.15,2013-05-15 19:20:00,
2013-05-15 15:30:00,79.9,62.3,29.53,West,273,10.0,13.0,55,0.00,,,0.11,Wunderground v.1.15,2013-05-15 19:30:00,
2013-05-15 15:35:00,79.6,62.0,29.54,WSW,237,9.0,16.0,55,0.00,,,0.11,Wunderground v.1.15,2013-05-15 19:35:00,
2013-05-15 15:45:00,78.5,62.5,29.54,West,259,9.0,12.0,58,0.00,,,0.11,Wunderground v.1.15,2013-05-15 19:45:00,
2013-05-15 16:00:00,78.4,61.4,29.55,WNW,299,11.0,11.0,56,0.00,,,0.11,Wunderground v.1.15,2013-05-15 20:00:00,
2013-05-15 16:05:00,78.6,61.1,29.55,WSW,244,9.0,11.0,55,0.00,,,0.11,Wunderground v.1.15,2013-05-15 20:05:00,
2013-05-15 16:10:00,78.0,61.0,29.55,West,274,10.0,13.0,56,0.00,,,0.11,Wunderground v.1.15,2013-05-15 20:10:00,
2013-05-15 16:20:00,77.5,61.1,29.56,West,270,11.0,12.0,57,0.00,,,0.11,Wunderground v.1.15,2013-05-15 20:20:00,
2013-05-15 16:30:00,77.5,60.6,29.56,WNW,283,10.0,23.0,56,0.00,,,0.11,Wunderground v.1.15,2013-05-15 20:30:00,
2013-05-15 16:40:00,77.4,58.4,29.57,WNW,286,10.0,15.0,52,0.00,,,0.11,Wunderground v.1.15,2013-05-15 20:40:00,
2013-05-15 16:50:00,76.5,57.6,29.57,West,277,9.0,9.0,52,0.00,,,0.11,Wunderground v.1.15,2013-05-15 20:50:00,
2013-05-15 17:00:00,76.6,57.1,29.58,WSW,258,10.0,10.0,51,0.00,,,0.11,Wunderground v.1.15,2013-05-15 21:00:00,
2013-05-15 17:10:00,76.8,57.3,29.58,West,277,10.0,12.0,51,0.00,,,0.11,Wunderground v.1.15,2013-05-15 21:10:00,
2013-05-15 17:15:00,76.7,57.2,29.59,West,273,9.0,12.0,51,0.00,,,0.11,Wunderground v.1.15,2013-05-15 21:15:00,
2013-05-15 17:25:00,75.8,56.4,29.59,WNW,283,10.0,12.0,51,0.00,,,0.11,Wunderground v.1.15,2013-05-15 21:25:00,
2013-05-15 17:35:00,75.5,55.6,29.60,WNW,292,10.0,12.0,50,0.00,,,0.11,Wunderground v.1.15,2013-05-15 21:35:00,
2013-05-15 17:40:00,75.0,54.5,29.61,WNW,292,11.0,11.0,49,0.00,,,0.11,Wunderground v.1.15,2013-05-15 21:40:00,
2013-05-15 17:50:00,74.3,54.5,29.62,West,259,9.0,14.0,50,0.00,,,0.11,Wunderground v.1.15,2013-05-15 21:50:00,
2013-05-15 17:55:00,74.0,54.2,29.62,West,269,10.0,14.0,50,0.00,,,0.11,Wunderground v.1.15,2013-05-15 21:55:00,
2013-05-15 18:00:00,73.7,53.3,29.62,WNW,288,11.0,11.0,49,0.00,,,0.11,Wunderground v.1.15,2013-05-15 22:00:00,
2013-05-15 18:10:00,73.4,55.2,29.62,West,271,9.0,9.0,53,0.00,,,0.11,Wunderground v.1.15,2013-05-15 22:10:00,
2013-05-15 18:20:00,73.4,54.2,29.63,West,264,8.0,8.0,51,0.00,,,0.11,Wunderground v.1.15,2013-05-15 22:20:00,
2013-05-15 18:35:00,72.9,54.2,29.63,West,269,8.0,11.0,52,0.00,,,0.11,Wunderground v.1.15,2013-05-15 22:35:00,
2013-05-15 18:40:00,72.8,54.1,29.64,WSW,254,9.0,13.0,52,0.00,,,0.11,Wunderground v.1.15,2013-05-15 22:40:00,
2013-05-15 18:50:00,72.6,53.4,29.64,WNW,298,9.0,9.0,51,0.00,,,0.11,Wunderground v.1.15,2013-05-15 22:50:00,
2013-05-15 18:55:00,72.5,53.9,29.64,West,279,10.0,10.0,52,0.00,,,0.11,Wunderground v.1.15,2013-05-15 22:55:00,
2013-05-15 19:05:00,72.3,54.2,29.65,WNW,282,8.0,9.0,53,0.00,,,0.11,Wunderground v.1.15,2013-05-15 23:05:00,
2013-05-15 19:15:00,72.0,52.3,29.65,NW,311,10.0,14.0,50,0.00,,,0.11,Wunderground v.1.15,2013-05-15 23:15:00,
2013-05-15 19:25:00,71.6,52.5,29.65,WNW,286,8.0,12.0,51,0.00,,,0.11,Wunderground v.1.15,2013-05-15 23:25:00,
2013-05-15 19:35:00,71.2,52.1,29.66,NW,304,6.0,8.0,51,0.00,,,0.11,Wunderground v.1.15,2013-05-15 23:35:00,
2013-05-15 19:45:00,70.7,51.7,29.66,West,275,6.0,6.0,51,0.00,,,0.11,Wunderground v.1.15,2013-05-15 23:45:00,
2013-05-15 19:55:00,70.3,51.3,29.67,West,277,7.0,7.0,51,0.00,,,0.11,Wunderground v.1.15,2013-05-15 23:55:00,
2013-05-15 20:05:00,69.5,50.0,29.67,WNW,287,5.0,8.0,50,0.00,,,0.11,Wunderground v.1.15,2013-05-16 00:05:00,
2013-05-15 20:15:00,68.9,49.5,29.68,West,272,8.0,10.0,50,0.00,,,0.11,Wunderground v.1.15,2013-05-16 00:15:00,
2013-05-15 20:25:00,68.3,48.9,29.68,West,280,6.0,6.0,50,0.00,,,0.11,Wunderground v.1.15,2013-05-16 00:25:00,
2013-05-15 20:35:00,67.7,48.9,29.69,West,271,6.0,10.0,51,0.00,,,0.11,Wunderground v.1.15,2013-05-16 00:35:00,
2013-05-15 20:45:00,67.0,48.3,29.69,WNW,299,4.0,6.0,51,0.00,,,0.11,Wunderground v.1.15,2013-05-16 00:45:00,
2013-05-15 20:55:00,66.3,48.1,29.70,WNW,292,2.0,3.0,52,0.00,,,0.11,Wunderground v.1.15,2013-05-16 00:55:00,
2013-05-15 21:05:00,65.6,48.0,29.70,WNW,287,2.0,2.0,53,0.00,,,0.11,Wunderground v.1.15,2013-05-16 01:05:00,
2013-05-15 21:10:00,65.3,48.2,29.70,WNW,292,2.0,5.0,54,0.00,,,0.11,Wunderground v.1.15,2013-05-16 01:10:00,
2013-05-15 21:20:00,64.9,47.9,29.70,West,281,2.0,3.0,54,0.00,,,0.11,Wunderground v.1.15,2013-05-16 01:20:00,
2013-05-15 21:25:00,64.7,48.2,29.71,West,281,1.0,3.0,55,0.00,,,0.11,Wunderground v.1.15,2013-05-16 01:25:00,
2013-05-15 21:35:00,64.2,47.2,29.72,West,277,1.0,2.0,54,0.00,,,0.11,Wunderground v.1.15,2013-05-16 01:35:00,
2013-05-15 21:45:00,63.7,47.2,29.72,West,278,1.0,2.0,55,0.00,,,0.11,Wunderground v.1.15,2013-05-16 01:45:00,
2013-05-15 21:50:00,63.4,47.4,29.72,West,278,0.0,0.0,56,0.00,,,0.11,Wunderground v.1.15,2013-05-16 01:50:00,
2013-05-15 21:55:00,63.1,47.1,29.72,West,277,0.0,0.0,56,0.00,,,0.11,Wunderground v.1.15,2013-05-16 01:55:00,
2013-05-15 22:00:00,63.0,47.1,29.72,West,278,1.0,2.0,56,0.00,,,0.11,Wunderground v.1.15,2013-05-16 02:00:00,
2013-05-15 22:10:00,62.7,46.8,29.72,West,278,1.0,1.0,56,0.00,,,0.11,Wunderground v.1.15,2013-05-16 02:10:00,
2013-05-15 22:20:00,62.6,46.7,29.72,West,279,1.0,2.0,56,0.00,,,0.11,Wunderground v.1.15,2013-05-16 02:20:00,
2013-05-15 22:25:00,62.6,46.7,29.72,WSW,252,1.0,2.0,56,0.00,,,0.11,Wunderground v.1.15,2013-05-16 02:25:00,
2013-05-15 22:35:00,62.8,45.4,29.72,West,263,2.0,2.0,53,0.00,,,0.11,Wunderground v.1.15,2013-05-16 02:35:00,
2013-05-15 22:45:00,63.2,45.3,29.71,West,271,2.0,3.0,52,0.00,,,0.11,Wunderground v.1.15,2013-05-16 02:45:00,
2013-05-15 22:50:00,63.2,45.3,29.71,West,260,2.0,3.0,52,0.00,,,0.11,Wunderground v.1.15,2013-05-16 02:50:00,
2013-05-15 23:00:00,63.4,44.9,29.71,West,277,2.0,2.0,51,0.00,,,0.11,Wunderground v.1.15,2013-05-16 03:00:00,
2013-05-15 23:05:00,63.5,45.0,29.71,West,272,2.0,2.0,51,0.00,,,0.11,Wunderground v.1.15,2013-05-16 03:05:00,
2013-05-15 23:10:00,63.5,45.0,29.71,West,272,2.0,2.0,51,0.00,,,0.11,Wunderground v.1.15,2013-05-16 03:10:00,
2013-05-15 23:20:00,63.4,44.4,29.71,West,265,1.0,1.0,50,0.00,,,0.11,Wunderground v.1.15,2013-05-16 03:20:00,
2013-05-15 23:30:00,63.4,44.9,29.71,West,263,1.0,1.0,51,0.00,,,0.11,Wunderground v.1.15,2013-05-16 03:30:00,
2013-05-15 23:35:00,63.3,44.9,29.71,West,269,1.0,1.0,51,0.00,,,0.11,Wunderground v.1.15,2013-05-16 03:35:00,
2013-05-15 23:45:00,63.2,44.8,29.70,West,269,0.0,0.0,51,0.00,,,0.11,Wunderground v.1.15,2013-05-16 03:45:00,
2013-05-15 23:55:00,63.0,45.1,29.70,West,268,0.0,0.0,52,0.00,,,0.11,Wunderground v.1.15,2013-05-16 03:55:00,